»·PEaware :: DCM365 KOLS-KFBR

DCM365 :: KOLS-KFBR

FLIGHT INFORMATION

Flight Status: Arrived
Operator:
DotCom
More flights by this operator :: More flights under this callsign
Pilot: Lauren G. (5641)
Aircraft: BOEING 737-300
(B733)
More flights by this aircraft type
Origin: KOLS Nogales Intl
United States
Destination: KFBR Ft Bridger
United States
More flights between these airports :: More routes between these airports
Route: +OLS1 TUS T306 PXR J11 TCH
File this flight plan on PilotEdge
Remarks: FSEconomy
Altitude:
(Current/Filed)
36,000ft
Speed:
(Current/Filed)
450kts
Departed: 13-Aug-17 09:50 AM
Arrived: 13-Aug-17 11:30 AM
Distance/Time
Traveled:
599nm/1:40
Distance/Time
To Go:
Arrived

Flight Plot

Page will automatically refresh every two minutes.

Flight plan parsing failed; only flown route is shown


Map Options




Map Legend


Flown Route
Filed Route
Departure Airport
Arrival Airport
Navaid (VOR, NDB)
Fix

Horizontal Profiles

Position Reports

Time Latitude Longitude Heading Altitude Ground
Speed
13-Aug-17 09:30 31.418092 -110.850090 47 3962ft 0kts
13-Aug-17 09:31 31.418092 -110.850090 47 3962ft 0kts
13-Aug-17 09:32 31.418092 -110.850090 47 3962ft 0kts
13-Aug-17 09:33 31.418092 -110.850090 47 3962ft 0kts
13-Aug-17 09:34 31.418092 -110.850090 47 3962ft 0kts
13-Aug-17 09:35 31.418092 -110.850090 47 3962ft 0kts
13-Aug-17 09:36 31.418092 -110.850090 47 3962ft 0kts
13-Aug-17 09:37 31.418092 -110.850090 47 3962ft 0kts
13-Aug-17 09:38 31.418092 -110.850090 47 3962ft 0kts
13-Aug-17 09:39 31.418092 -110.850090 47 3962ft 0kts
13-Aug-17 09:40 31.418092 -110.850090 47 3962ft 0kts
13-Aug-17 09:41 31.418092 -110.850090 47 3962ft 0kts
13-Aug-17 09:42 31.418092 -110.850090 47 3962ft 0kts
13-Aug-17 09:43 31.418092 -110.850090 47 3962ft 0kts
13-Aug-17 09:44 31.418092 -110.850090 47 3962ft 0kts
13-Aug-17 09:45 31.418092 -110.850090 47 3962ft 0kts
13-Aug-17 09:46 31.418092 -110.850090 47 3962ft 0kts
13-Aug-17 09:47 31.418092 -110.850090 47 3962ft 0kts
13-Aug-17 09:49 31.418092 -110.850090 47 3962ft 0kts
13-Aug-17 09:50 31.418097 -110.850083 47 3962ft 0kts
13-Aug-17 09:51 31.419633 -110.847342 47 3962ft 16kts
13-Aug-17 09:52 31.424883 -110.840963 47 3962ft 17kts
13-Aug-17 09:53 31.424345 -110.839847 219 3962ft 2kts
13-Aug-17 09:54 31.402196 -110.866072 226 4576ft 191kts
13-Aug-17 09:55 31.411688 -110.914689 345 7247ft 199kts
13-Aug-17 09:56 31.473106 -110.906065 5 9182ft 250kts
13-Aug-17 09:57 31.545507 -110.913927 334 11097ft 288kts
13-Aug-17 09:58 31.624873 -110.950595 337 12477ft 340kts
13-Aug-17 09:59 31.717666 -110.977546 5 15232ft 362kts
13-Aug-17 10:00 31.819070 -110.960612 5 17842ft 376kts
13-Aug-17 10:01 31.923990 -110.943347 5 20219ft 389kts
13-Aug-17 10:02 32.032690 -110.925444 5 22408ft 402kts
13-Aug-17 10:03 32.134154 -110.951985 317 24218ft 402kts
13-Aug-17 10:04 32.220139 -111.038112 318 26094ft 412kts
13-Aug-17 10:05 32.309128 -111.126029 318 27791ft 423kts
13-Aug-17 10:06 32.399571 -111.215555 318 29650ft 424kts
13-Aug-17 10:07 32.489105 -111.304406 318 31534ft 419kts
13-Aug-17 10:08 32.577830 -111.392718 318 33144ft 415kts
13-Aug-17 10:09 32.665520 -111.480201 318 34498ft 412kts
13-Aug-17 10:10 32.752714 -111.567426 318 35663ft 410kts
13-Aug-17 10:11 32.840918 -111.651031 331 36223ft 419kts
13-Aug-17 10:12 32.949178 -111.708515 333 36214ft 437kts
13-Aug-17 10:13 33.060671 -111.768504 333 36251ft 446kts
13-Aug-17 10:14 33.170919 -111.827905 333 36261ft 447kts
13-Aug-17 10:15 33.284005 -111.889125 333 36258ft 447kts
13-Aug-17 10:16 33.396599 -111.950275 333 36258ft 447kts
13-Aug-17 10:17 33.513099 -112.002349 340 36258ft 448kts
13-Aug-17 10:18 33.630948 -112.048861 339 36258ft 448kts
13-Aug-17 10:19 33.748848 -112.095751 340 36258ft 448kts
13-Aug-17 10:20 33.866757 -112.142750 339 36258ft 448kts
13-Aug-17 10:21 33.984532 -112.189846 339 36258ft 448kts
13-Aug-17 10:22 34.101405 -112.236715 339 36258ft 448kts
13-Aug-17 10:23 34.218143 -112.283545 339 36259ft 448kts
13-Aug-17 10:24 34.336158 -112.331145 339 36258ft 448kts
13-Aug-17 10:25 34.453870 -112.378769 339 36258ft 448kts
13-Aug-17 10:26 34.571678 -112.426574 339 36258ft 448kts
13-Aug-17 10:27 34.689794 -112.474619 340 36258ft 448kts
13-Aug-17 10:28 34.814391 -112.474362 1 36261ft 454kts
13-Aug-17 10:29 34.939730 -112.466954 1 36258ft 453kts
13-Aug-17 10:30 35.065500 -112.459749 1 36258ft 453kts
13-Aug-17 10:31 35.189135 -112.452613 1 36261ft 453kts
13-Aug-17 10:32 35.314374 -112.445363 1 36258ft 453kts
13-Aug-17 10:32 35.419094 -112.439295 1 36258ft 453kts
13-Aug-17 10:33 35.544568 -112.432050 1 36258ft 453kts
13-Aug-17 10:34 35.670263 -112.424728 1 36258ft 453kts
13-Aug-17 10:35 35.766394 -112.419087 356 36253ft 454kts
13-Aug-17 10:36 35.867605 -112.413212 355 36348ft 459kts
13-Aug-17 10:37 35.967423 -112.407347 355 36361ft 461kts
13-Aug-17 10:38 36.094977 -112.399848 355 36357ft 460kts
13-Aug-17 10:39 36.216278 -112.392720 355 36360ft 461kts
13-Aug-17 10:40 36.343561 -112.385173 355 36357ft 460kts
13-Aug-17 10:41 36.470771 -112.377614 355 36337ft 460kts
13-Aug-17 10:42 36.598326 -112.370009 355 36334ft 460kts
13-Aug-17 10:43 36.725508 -112.362400 355 36307ft 460kts
13-Aug-17 10:44 36.853073 -112.354740 355 36246ft 460kts
13-Aug-17 10:45 36.980430 -112.347157 356 36252ft 460kts
13-Aug-17 10:46 37.103837 -112.339690 358 36320ft 449kts
13-Aug-17 10:47 37.227547 -112.332223 359 36364ft 449kts
13-Aug-17 10:48 37.351731 -112.324661 359 36366ft 448kts
13-Aug-17 10:49 37.475854 -112.317097 359 36367ft 449kts
13-Aug-17 10:50 37.600404 -112.309502 359 36367ft 449kts
13-Aug-17 10:51 37.724356 -112.299671 2 36367ft 450kts
13-Aug-17 10:52 37.847978 -112.282534 2 36368ft 451kts
13-Aug-17 10:53 37.971041 -112.266007 2 36367ft 450kts
13-Aug-17 10:54 38.095293 -112.248950 2 36368ft 450kts
13-Aug-17 10:55 38.216199 -112.232377 2 36370ft 451kts
13-Aug-17 10:56 38.340313 -112.215229 2 36317ft 450kts
13-Aug-17 10:57 38.464406 -112.198042 2 36273ft 450kts
13-Aug-17 10:58 38.588786 -112.180880 2 36283ft 451kts
13-Aug-17 10:59 38.713135 -112.163523 2 36164ft 451kts
13-Aug-17 11:00 38.836849 -112.146218 2 36128ft 450kts
13-Aug-17 11:01 38.960820 -112.128770 2 36137ft 445kts
13-Aug-17 11:02 39.082369 -112.111632 3 36121ft 438kts
13-Aug-17 11:03 39.199966 -112.095077 3 36132ft 439kts
13-Aug-17 11:04 39.320999 -112.077960 3 36129ft 439kts
13-Aug-17 11:05 39.441691 -112.060792 3 36129ft 439kts
13-Aug-17 11:06 39.559614 -112.043981 3 36129ft 439kts
13-Aug-17 11:07 39.680792 -112.026648 3 36130ft 439kts
13-Aug-17 11:08 39.801690 -112.009292 3 36136ft 439kts
13-Aug-17 11:09 39.922873 -111.991835 3 36138ft 439kts
13-Aug-17 11:10 40.043878 -111.974352 3 36138ft 439kts
13-Aug-17 11:11 40.161938 -111.957283 3 35595ft 423kts
13-Aug-17 11:12 40.275583 -111.941132 359 34205ft 416kts
13-Aug-17 11:13 40.391204 -111.949069 354 32639ft 419kts
13-Aug-17 11:14 40.507973 -111.957511 354 31062ft 425kts
13-Aug-17 11:15 40.627416 -111.966106 354 29491ft 440kts
13-Aug-17 11:16 40.747960 -111.974748 354 27899ft 432kts
13-Aug-17 11:17 40.861985 -111.948844 41 26287ft 441kts
13-Aug-17 11:18 40.902863 -111.798220 71 24603ft 440kts
13-Aug-17 11:19 40.942841 -111.648053 68 22807ft 428kts
13-Aug-17 11:20 40.982949 -111.501691 68 21008ft 419kts
13-Aug-17 11:21 41.021991 -111.358547 69 19211ft 410kts
13-Aug-17 11:22 41.059799 -111.218930 70 17392ft 400kts
13-Aug-17 11:23 41.095440 -111.086789 70 15662ft 388kts
13-Aug-17 11:24 41.128582 -110.964055 70 14264ft 348kts
13-Aug-17 11:25 41.159575 -110.848082 70 12934ft 320kts
13-Aug-17 11:26 41.187570 -110.742767 70 11701ft 283kts
13-Aug-17 11:27 41.218246 -110.649852 45 11184ft 274kts
13-Aug-17 11:28 41.269112 -110.584519 40 9715ft 239kts
13-Aug-17 11:29 41.306685 -110.529919 34 8888ft 168kts
13-Aug-17 11:30 41.340723 -110.496905 22 7960ft 148kts
13-Aug-17 11:31 41.366727 -110.455495 60 7975ft 156kts
13-Aug-17 11:32 41.390312 -110.410073 55 7041ft 132kts
13-Aug-17 11:33 41.397474 -110.397978 325 7041ft 11kts

Navigation Log

Ident Type
Flight plan parsing failed, navigation log unavailable